Hanjin Chongqing — 3EPJ2 — position and weather

sailwx.info

Track history (hours):
 
Tides and Currents Weather Stations Pressure Air Temp Water Temp Dewpoint Dewpoint Depression Visibility Wind Speed Wind Dir Waves Ship Positions

Hanjin Chongqing

Last reported at 2015-Feb-20 19:06 UTC. Time now 2015-Mar-04 16:52 UTC.
Position N 23°47' E 118°38'.
Warning: this ship's position is 11 days out of date.

Length 304 m; draft 12 m.

Type: Cargo ship. MMSI: 353957976.

Date/timePositionNaut miles runAvg speedWind from/ knotsBaromVisibWave heightAir tempDewpointWater temp
2015-Feb-20 19:06N 23°47' E 118°38'711.7
2015-Feb-20 18:33N 23°43' E 118°33'1211.7
2015-Feb-20 17:33N 23°37' E 118°22'1212.1
2015-Feb-20 16:33N 23°30' E 118°11'1312.8
2015-Feb-20 15:33N 23°23' E 117°59'1413.6
2015-Feb-20 14:31N 23°17' E 117°45'18211.1
2015-Feb-19 22:06N 22°23' E 114°36'610.6
2015-Feb-19 21:33N 22°23' E 114°30'1511.5
2015-Feb-19 20:15N 22°34' E 114°19'3 3.7
2015-Feb-19 19:30N 22°34' E 114°16'0 0.0
2015-Feb-19 11:30N 22°34' E 114°16'0 0.0
2015-Feb-19 10:06N 22°34' E 114°16'0 0.1
2015-Feb-19 09:12N 22°34' E 114°16'0 0.0
2015-Feb-19 08:30N 22°34' E 114°16'0 0.0
2015-Feb-19 07:06N 22°34' E 114°16'0 0.1
2015-Feb-19 03:20N 22°34' E 114°16'18 6.2
2015-Feb-19 00:22N 22°20' E 114°28'1112.5
2015-Feb-18 23:31N 22°09' E 114°27'1313.1
2015-Feb-18 22:32N 21°57' E 114°25'1813.4
2015-Feb-18 21:13N 21°39' E 114°21'  
2015-Feb-11 11:30N 01°13' E 103°53'3 3.3
2015-Feb-11 10:33N 01°16' E 103°51'0 0.0
2015-Feb-11 09:33N 01°16' E 103°51'0 0.0
2015-Feb-11 08:12N 01°16' E 103°51'0 0.0
2015-Feb-11 07:24N 01°16' E 103°51'0 0.0
2015-Feb-11 06:30N 01°16' E 103°51'0 0.0
2015-Feb-11 05:19N 01°16' E 103°51'0 0.0
2015-Feb-11 04:25N 01°16' E 103°51'0 0.0
2015-Feb-11 03:24N 01°16' E 103°51'0 0.0
2015-Feb-11 02:34N 01°16' E 103°51'0 0.0
2015-Feb-11 01:31N 01°16' E 103°51'0 0.0
2015-Feb-11 00:30N 01°16' E 103°51'0 0.0
2015-Feb-10 23:30N 01°16' E 103°51'0 0.0
2015-Feb-10 21:30N 01°16' E 103°51'0 0.2
2015-Feb-10 20:33N 01°16' E 103°51'2 2.0
2015-Feb-10 19:32N 01°15' E 103°53'  
Track history (hours):
 
Tides and Currents Weather Stations Pressure Air Temp Water Temp Dewpoint Dewpoint Depression Visibility Wind Speed Wind Dir Waves Ship Positions

Hanjin Chongqing

Last reported at 2015-Feb-20 19:06 UTC. Time now 2015-Mar-04 16:52 UTC.
Position N 23°47' E 118°38'.
Warning: this ship's position is 11 days out of date.

Length 304 m; draft 12 m.

Type: Cargo ship. MMSI: 353957976.

Date/timePositionNaut miles runAvg speedWind from/ knotsBaromVisibWave heightAir tempDewpointWater temp
2015-Feb-20 19:06N 23°47' E 118°38'711.7
2015-Feb-20 18:33N 23°43' E 118°33'1211.7
2015-Feb-20 17:33N 23°37' E 118°22'1212.1
2015-Feb-20 16:33N 23°30' E 118°11'1312.8
2015-Feb-20 15:33N 23°23' E 117°59'1413.6
2015-Feb-20 14:31N 23°17' E 117°45'18211.1
2015-Feb-19 22:06N 22°23' E 114°36'610.6
2015-Feb-19 21:33N 22°23' E 114°30'1511.5
2015-Feb-19 20:15N 22°34' E 114°19'3 3.7
2015-Feb-19 19:30N 22°34' E 114°16'0 0.0
2015-Feb-19 11:30N 22°34' E 114°16'0 0.0
2015-Feb-19 10:06N 22°34' E 114°16'0 0.1
2015-Feb-19 09:12N 22°34' E 114°16'0 0.0
2015-Feb-19 08:30N 22°34' E 114°16'0 0.0
2015-Feb-19 07:06N 22°34' E 114°16'0 0.1
2015-Feb-19 03:20N 22°34' E 114°16'18 6.2
2015-Feb-19 00:22N 22°20' E 114°28'1112.5
2015-Feb-18 23:31N 22°09' E 114°27'1313.1
2015-Feb-18 22:32N 21°57' E 114°25'1813.4
2015-Feb-18 21:13N 21°39' E 114°21'  
2015-Feb-11 11:30N 01°13' E 103°53'3 3.3
2015-Feb-11 10:33N 01°16' E 103°51'0 0.0
2015-Feb-11 09:33N 01°16' E 103°51'0 0.0
2015-Feb-11 08:12N 01°16' E 103°51'0 0.0
2015-Feb-11 07:24N 01°16' E 103°51'0 0.0
2015-Feb-11 06:30N 01°16' E 103°51'0 0.0
2015-Feb-11 05:19N 01°16' E 103°51'0 0.0
2015-Feb-11 04:25N 01°16' E 103°51'0 0.0
2015-Feb-11 03:24N 01°16' E 103°51'0 0.0
2015-Feb-11 02:34N 01°16' E 103°51'0 0.0
2015-Feb-11 01:31N 01°16' E 103°51'0 0.0
2015-Feb-11 00:30N 01°16' E 103°51'0 0.0
2015-Feb-10 23:30N 01°16' E 103°51'0 0.0
2015-Feb-10 21:30N 01°16' E 103°51'0 0.2
2015-Feb-10 20:33N 01°16' E 103°51'2 2.0
2015-Feb-10 19:32N 01°15' E 103°53'  

Dump ship's entire track history